createdAt,value
2017-12-16T00:01:57.588Z,11.99
2017-12-16T00:04:24.639Z,11.98
2017-12-16T00:06:51.072Z,11.96
2017-12-16T00:09:17.506Z,12.04
2017-12-16T00:11:43.941Z,12.02
2017-12-16T00:14:10.376Z,11.96
2017-12-16T00:16:36.810Z,11.98
2017-12-16T00:19:03.176Z,11.93
2017-12-16T00:21:30.398Z,11.94
2017-12-16T00:23:56.831Z,11.91
2017-12-16T00:26:23.200Z,11.92
2017-12-16T00:28:49.598Z,11.89
2017-12-16T00:31:16.135Z,11.81
2017-12-16T00:33:42.570Z,11.81
2017-12-16T00:36:09.004Z,11.94
2017-12-16T00:38:36.054Z,12.00
2017-12-16T00:41:02.581Z,12.06
2017-12-16T00:43:29.029Z,12.10
2017-12-16T00:45:55.463Z,12.06
2017-12-16T00:48:21.894Z,11.96
2017-12-16T00:50:48.432Z,11.92
2017-12-16T00:53:14.866Z,11.80
2017-12-16T00:55:41.915Z,11.78
2017-12-16T00:58:08.350Z,11.76
2017-12-16T01:00:34.888Z,11.81
2017-12-16T01:03:01.252Z,11.80
2017-12-16T01:05:27.653Z,11.73
2017-12-16T01:07:54.088Z,11.68
2017-12-16T01:10:20.626Z,11.61
2017-12-16T01:12:47.675Z,11.67
2017-12-16T01:15:14.108Z,11.70
2017-12-16T01:17:40.645Z,11.69
2017-12-16T01:20:07.081Z,11.67
2017-12-16T01:22:33.522Z,11.67
2017-12-16T01:24:59.949Z,11.66
2017-12-16T01:27:26.384Z,11.68
2017-12-16T01:29:53.639Z,11.67
2017-12-16T01:32:20.176Z,11.66
2017-12-16T01:34:46.610Z,11.61
2017-12-16T01:37:13.046Z,11.59
2017-12-16T01:39:39.479Z,11.56
2017-12-16T01:42:05.915Z,11.56
2017-12-16T01:44:32.349Z,11.46
2017-12-16T01:46:59.473Z,11.46
2017-12-16T01:49:25.832Z,11.44
2017-12-16T01:51:52.357Z,11.38
2017-12-16T01:54:18.804Z,11.39
2017-12-16T01:56:45.168Z,11.42
2017-12-16T01:59:11.570Z,11.51
2017-12-16T02:01:38.108Z,11.65
2017-12-16T02:04:05.145Z,11.60
2017-12-16T02:06:31.597Z,11.47
2017-12-16T02:08:57.926Z,11.46
2017-12-16T02:11:24.461Z,11.41
2017-12-16T02:13:50.895Z,11.44
2017-12-16T02:16:17.331Z,11.44
2017-12-16T02:18:43.764Z,11.44
2017-12-16T02:21:10.892Z,11.50
2017-12-16T02:23:37.333Z,11.53
2017-12-16T02:26:03.788Z,11.61
2017-12-16T02:28:30.222Z,11.57
2017-12-16T02:30:56.734Z,11.60
2017-12-16T02:33:23.180Z,11.61
2017-12-16T02:35:49.628Z,11.61
2017-12-16T02:38:16.778Z,11.71
2017-12-16T02:40:43.307Z,11.74
2017-12-16T02:43:09.749Z,11.73
2017-12-16T02:45:36.364Z,11.77
2017-12-16T02:48:02.823Z,11.76
2017-12-16T02:50:29.360Z,11.81
2017-12-16T02:52:55.796Z,11.79
2017-12-16T02:55:22.948Z,11.73
2017-12-16T02:57:49.381Z,11.75
2017-12-16T03:00:15.816Z,11.83
2017-12-16T03:02:42.251Z,11.82
2017-12-16T03:05:08.685Z,11.82
2017-12-16T03:07:35.121Z,11.92
2017-12-16T03:10:01.555Z,12.00
2017-12-16T03:12:28.706Z,11.96
2017-12-16T03:14:55.142Z,11.93
2017-12-16T03:17:21.519Z,11.91
2017-12-16T03:19:47.908Z,11.84
2017-12-16T03:22:14.447Z,11.91
2017-12-16T03:24:40.866Z,11.96
2017-12-16T03:27:07.316Z,11.99
2017-12-16T03:29:34.350Z,12.01
2017-12-16T03:32:00.900Z,12.06
2017-12-16T03:34:27.335Z,12.11
2017-12-16T03:36:53.768Z,12.10
2017-12-16T03:39:20.206Z,12.06
2017-12-16T03:41:46.740Z,12.05
2017-12-16T03:44:13.176Z,12.06
2017-12-16T03:46:40.327Z,12.00
2017-12-16T03:49:06.761Z,12.01
2017-12-16T03:51:33.301Z,12.00
2017-12-16T03:53:59.733Z,12.03
2017-12-16T03:56:26.169Z,12.04
2017-12-16T03:58:52.603Z,11.98
2017-12-16T04:01:19.140Z,12.06
2017-12-16T04:03:46.291Z,12.20
2017-12-16T04:06:12.725Z,12.19
2017-12-16T04:08:39.130Z,12.14
2017-12-16T04:11:05.594Z,12.17
2017-12-16T04:13:32.030Z,12.16
2017-12-16T04:15:58.431Z,12.20
2017-12-16T04:18:24.872Z,12.24
2017-12-16T04:20:52.014Z,12.17
2017-12-16T04:23:18.484Z,12.17
2017-12-16T04:25:44.919Z,12.22
2017-12-16T04:28:11.354Z,12.35
2017-12-16T04:30:37.884Z,12.28
2017-12-16T04:33:04.326Z,12.22
2017-12-16T04:35:30.761Z,12.28
2017-12-16T04:37:57.810Z,12.17
2017-12-16T04:40:24.244Z,12.21
2017-12-16T04:42:50.649Z,12.28
2017-12-16T04:45:17.115Z,12.24
2017-12-16T04:47:43.562Z,12.30
2017-12-16T04:50:09.880Z,12.23
2017-12-16T04:52:36.314Z,12.24
2017-12-16T04:55:03.542Z,12.27
2017-12-16T04:57:30.003Z,12.24
2017-12-16T04:59:56.438Z,12.22
2017-12-16T05:02:22.975Z,12.25
2017-12-16T05:04:49.409Z,12.34
2017-12-16T05:07:15.844Z,12.50
2017-12-16T05:09:42.381Z,12.60
2017-12-16T05:12:09.635Z,12.56
2017-12-16T05:14:36.002Z,12.59
2017-12-16T05:17:02.487Z,12.52
2017-12-16T05:19:28.939Z,12.54
2017-12-16T05:21:55.476Z,12.57
2017-12-16T05:24:21.789Z,12.54
2017-12-16T05:26:48.244Z,12.57
2017-12-16T05:29:15.395Z,12.55
2017-12-16T05:31:41.832Z,12.50
2017-12-16T05:34:08.265Z,12.52
2017-12-16T05:36:34.698Z,12.60
2017-12-16T05:39:01.134Z,12.51
2017-12-16T05:41:27.670Z,12.57
2017-12-16T05:43:54.104Z,12.62
2017-12-16T05:46:21.189Z,12.73
2017-12-16T05:48:47.568Z,12.79
2017-12-16T05:51:14.126Z,12.79
2017-12-16T05:53:40.560Z,12.84
2017-12-16T05:56:06.995Z,12.88
2017-12-16T05:58:33.429Z,12.90
2017-12-16T06:00:59.864Z,12.96
2017-12-16T06:03:27.015Z,13.00
2017-12-16T06:05:53.449Z,12.98
2017-12-16T06:08:19.782Z,12.99
2017-12-16T06:10:46.319Z,12.91
2017-12-16T06:13:12.754Z,13.00
2017-12-16T06:15:39.137Z,12.96
2017-12-16T06:18:05.520Z,13.03
2017-12-16T06:20:32.775Z,13.04
2017-12-16T06:22:59.143Z,13.01
2017-12-16T06:25:25.499Z,13.06
2017-12-16T06:27:51.874Z,13.03
2017-12-16T06:30:18.308Z,13.07
2017-12-16T06:32:44.742Z,13.14
2017-12-16T06:35:11.110Z,13.21
2017-12-16T06:37:38.336Z,13.21
2017-12-16T06:40:04.763Z,13.32
2017-12-16T06:42:31.127Z,13.30
2017-12-16T06:44:57.530Z,13.31
2017-12-16T06:47:23.863Z,13.32
2017-12-16T06:49:50.296Z,13.34
2017-12-16T06:52:16.834Z,13.39
2017-12-16T06:54:43.782Z,13.43
2017-12-16T06:57:10.217Z,13.48
2017-12-16T06:59:36.651Z,13.49
2017-12-16T07:02:03.121Z,13.53
2017-12-16T07:04:29.532Z,13.58
2017-12-16T07:06:55.854Z,13.57
2017-12-16T07:09:22.290Z,13.65
2017-12-16T07:11:49.430Z,13.67
2017-12-16T07:14:15.771Z,13.63
2017-12-16T07:16:42.205Z,13.75
2017-12-16T07:19:09.357Z,13.73
2017-12-16T07:21:35.791Z,13.71
2017-12-16T07:24:02.227Z,13.75
2017-12-16T07:26:28.660Z,13.77
2017-12-16T07:28:55.505Z,13.63
2017-12-16T07:31:22.017Z,13.82
2017-12-16T07:33:48.459Z,13.90
2017-12-16T07:36:14.911Z,14.05
2017-12-16T07:38:41.346Z,14.04
2017-12-16T07:41:07.780Z,14.12
2017-12-16T07:43:34.214Z,14.20
2017-12-16T07:46:00.652Z,14.26
2017-12-16T07:48:27.084Z,14.32
2017-12-16T07:50:53.623Z,14.45
2017-12-16T07:53:20.056Z,14.50
2017-12-16T07:55:46.495Z,14.54
2017-12-16T07:58:12.928Z,14.58
2017-12-16T08:00:39.463Z,14.68
2017-12-16T08:03:05.794Z,14.68
2017-12-16T08:05:32.232Z,14.76
2017-12-16T08:07:58.666Z,14.68
2017-12-16T08:10:25.133Z,14.74
2017-12-16T08:12:51.532Z,14.82
2017-12-16T08:15:17.955Z,14.91
2017-12-16T08:17:44.504Z,14.88
2017-12-16T08:20:10.939Z,14.92
2017-12-16T08:22:38.090Z,14.97
2017-12-16T08:25:04.525Z,15.01
2017-12-16T08:27:31.779Z,14.99
2017-12-16T08:29:59.064Z,14.95
2017-12-16T08:32:25.554Z,14.96
2017-12-16T08:34:52.012Z,15.07
2017-12-16T08:37:18.412Z,15.06
2017-12-16T08:39:44.855Z,15.08
2017-12-16T08:42:11.411Z,15.14
2017-12-16T08:44:37.746Z,15.17
2017-12-16T08:47:04.259Z,15.29
2017-12-16T08:49:30.715Z,15.29
2017-12-16T08:51:57.252Z,15.34
2017-12-16T08:54:23.662Z,15.42
2017-12-16T08:56:50.110Z,15.41
2017-12-16T08:59:16.587Z,15.29
2017-12-16T09:01:43.096Z,15.41
2017-12-16T09:04:09.535Z,15.52
2017-12-16T09:06:35.963Z,15.62
2017-12-16T09:09:02.399Z,15.64
2017-12-16T09:11:28.935Z,15.75
2017-12-16T09:13:55.302Z,15.76
2017-12-16T09:16:23.914Z,15.81
2017-12-16T09:18:50.490Z,15.84
2017-12-16T09:21:17.753Z,15.81
2017-12-16T09:23:44.691Z,15.84
2017-12-16T09:26:11.057Z,15.87
2017-12-16T09:28:37.464Z,15.90
2017-12-16T09:31:03.998Z,16.05
2017-12-16T09:33:30.533Z,16.12
2017-12-16T09:35:56.967Z,16.22
2017-12-16T09:38:23.297Z,16.26
2017-12-16T09:40:49.734Z,16.27
2017-12-16T09:43:16.271Z,16.30
2017-12-16T09:45:42.706Z,16.42
2017-12-16T09:48:09.072Z,16.47
2017-12-16T09:50:35.574Z,16.57
2017-12-16T09:53:02.008Z,16.65
2017-12-16T09:55:28.521Z,16.75
2017-12-16T09:57:54.981Z,16.80
2017-12-16T10:00:21.416Z,16.90
2017-12-16T10:02:47.749Z,16.93
2017-12-16T10:05:14.113Z,16.90
2017-12-16T10:07:40.515Z,16.97
2017-12-16T10:10:06.949Z,17.15
2017-12-16T10:12:33.385Z,17.19
2017-12-16T10:14:59.819Z,17.32
2017-12-16T10:17:26.259Z,17.44
2017-12-16T10:19:52.688Z,17.50
2017-12-16T10:22:19.228Z,17.60
2017-12-16T10:24:45.662Z,17.70
2017-12-16T10:27:12.175Z,17.73
2017-12-16T10:29:38.631Z,17.81
2017-12-16T10:32:05.121Z,17.88
2017-12-16T10:34:31.501Z,17.87
2017-12-16T10:36:57.920Z,17.92
2017-12-16T10:39:24.363Z,17.89
2017-12-16T10:41:51.235Z,17.80
2017-12-16T10:44:17.651Z,17.73
2017-12-16T10:46:44.087Z,17.73
2017-12-16T10:49:10.524Z,17.62
2017-12-16T10:51:37.059Z,17.62
2017-12-16T10:54:03.493Z,17.51
2017-12-16T10:56:30.331Z,17.47
2017-12-16T10:58:56.770Z,17.46
2017-12-16T11:01:23.329Z,17.40
2017-12-16T11:03:49.744Z,17.37
2017-12-16T11:06:16.132Z,17.38
2017-12-16T11:08:42.610Z,17.33
2017-12-16T11:11:10.068Z,17.29
2017-12-16T11:13:37.024Z,17.33
2017-12-16T11:16:03.553Z,17.38
2017-12-16T11:18:30.091Z,17.33
2017-12-16T11:20:57.651Z,17.40
2017-12-16T11:23:24.188Z,17.49
2017-12-16T11:25:50.624Z,17.45
2017-12-16T11:28:17.468Z,17.47
2017-12-16T11:30:44.011Z,17.38
2017-12-16T11:33:10.447Z,17.36
2017-12-16T11:35:36.873Z,17.34
2017-12-16T11:38:03.307Z,17.38
2017-12-16T11:40:29.743Z,17.36
2017-12-16T11:42:56.177Z,17.40
2017-12-16T11:45:22.768Z,17.45
2017-12-16T11:47:49.232Z,17.47
2017-12-16T11:50:15.674Z,17.56
2017-12-16T11:52:42.120Z,17.57
2017-12-16T11:55:08.556Z,17.58
2017-12-16T11:57:34.990Z,17.57
2017-12-16T12:00:01.320Z,17.51
2017-12-16T12:02:28.006Z,17.54
2017-12-16T12:04:54.380Z,17.48
2017-12-16T12:07:20.797Z,17.42
2017-12-16T12:09:47.265Z,17.43
2017-12-16T12:12:13.700Z,17.43
2017-12-16T12:14:40.169Z,17.45
2017-12-16T12:17:06.569Z,17.34
2017-12-16T12:19:32.937Z,17.27
2017-12-16T12:21:59.403Z,17.31
2017-12-16T12:24:25.771Z,17.37
2017-12-16T12:26:52.208Z,17.40
2017-12-16T12:29:18.640Z,17.39
2017-12-16T12:31:45.110Z,17.39
2017-12-16T12:34:11.490Z,17.42
2017-12-16T12:36:37.947Z,17.54
2017-12-16T12:39:04.379Z,17.59
2017-12-16T12:41:30.920Z,17.57
2017-12-16T12:43:57.355Z,17.47
2017-12-16T12:46:23.787Z,17.47
2017-12-16T12:48:51.022Z,17.49
2017-12-16T12:51:17.599Z,17.46
2017-12-16T12:53:43.982Z,17.38
2017-12-16T12:56:10.445Z,17.33
2017-12-16T12:58:36.881Z,17.32
2017-12-16T13:01:03.417Z,17.36
2017-12-16T13:03:29.753Z,17.25
2017-12-16T13:05:57.036Z,17.26
2017-12-16T13:08:23.440Z,17.17
2017-12-16T13:10:49.954Z,17.15
2017-12-16T13:13:16.412Z,17.11
2017-12-16T13:15:42.848Z,17.14
2017-12-16T13:18:09.280Z,17.10
2017-12-16T13:20:35.715Z,17.04
2017-12-16T13:23:02.866Z,17.02
2017-12-16T13:25:29.300Z,17.08
2017-12-16T13:27:55.735Z,17.13
2017-12-16T13:30:22.175Z,17.12
2017-12-16T13:32:48.604Z,17.09
2017-12-16T13:35:15.038Z,17.00
2017-12-16T13:37:41.472Z,16.94
2017-12-16T13:40:08.624Z,16.85
2017-12-16T13:42:35.059Z,16.85
2017-12-16T13:45:01.494Z,16.80
2017-12-16T13:47:27.930Z,16.69
2017-12-16T13:49:54.466Z,16.75
2017-12-16T13:52:20.978Z,16.72
2017-12-16T13:54:47.420Z,16.63
2017-12-16T13:57:14.563Z,16.54
2017-12-16T13:59:41.034Z,16.48
2017-12-16T14:02:07.560Z,16.40
2017-12-16T14:04:33.996Z,16.33
2017-12-16T14:07:00.430Z,16.28
2017-12-16T14:09:26.864Z,16.20
2017-12-16T14:11:53.403Z,16.09
2017-12-16T14:14:20.536Z,16.04
2017-12-16T14:16:46.988Z,15.97
2017-12-16T14:19:13.422Z,15.85
2017-12-16T14:21:39.893Z,15.88
2017-12-16T14:24:06.394Z,15.85
2017-12-16T14:26:32.829Z,15.85
2017-12-16T14:28:59.263Z,15.84
2017-12-16T14:31:26.415Z,15.92
2017-12-16T14:33:52.849Z,15.86
2017-12-16T14:36:19.283Z,15.80
2017-12-16T14:38:45.719Z,15.80
2017-12-16T14:41:13.280Z,16.31
2017-12-16T14:43:39.818Z,16.46
2017-12-16T14:46:06.239Z,16.34
2017-12-16T14:48:32.689Z,16.14
2017-12-16T14:50:59.199Z,15.94
2017-12-16T14:53:25.657Z,15.48
2017-12-16T14:55:52.195Z,15.13
2017-12-16T14:58:18.630Z,14.78
2017-12-16T15:00:45.166Z,14.50
2017-12-16T15:03:11.601Z,14.32
2017-12-16T15:05:38.036Z,14.12
2017-12-16T15:08:04.471Z,13.96
2017-12-16T15:10:31.009Z,13.80
2017-12-16T15:12:57.442Z,13.67
2017-12-16T15:15:23.884Z,13.59
2017-12-16T15:17:50.312Z,13.42
2017-12-16T15:20:16.746Z,13.30
2017-12-16T15:22:43.182Z,13.30
2017-12-16T15:25:09.616Z,13.25
2017-12-16T15:27:36.050Z,13.20
2017-12-16T15:30:02.490Z,13.13
2017-12-16T15:32:28.993Z,13.01
2017-12-16T15:34:55.460Z,12.95
2017-12-16T15:37:21.892Z,12.94
2017-12-16T15:39:48.327Z,12.92
2017-12-16T15:42:14.762Z,12.90
2017-12-16T15:44:41.195Z,12.82
2017-12-16T15:47:08.449Z,12.82
2017-12-16T15:49:34.884Z,12.80
2017-12-16T15:52:01.424Z,12.80
2017-12-16T15:54:27.753Z,12.71
2017-12-16T15:56:54.190Z,12.69
2017-12-16T15:59:20.624Z,12.71
2017-12-16T16:01:47.159Z,12.72
2017-12-16T16:04:14.210Z,12.70
2017-12-16T16:06:40.643Z,12.68
2017-12-16T16:09:07.010Z,12.71
2017-12-16T16:11:33.495Z,12.65
2017-12-16T16:13:59.913Z,12.63
2017-12-16T16:16:26.355Z,12.62
2017-12-16T16:18:52.797Z,12.63
2017-12-16T16:21:19.968Z,12.63
2017-12-16T16:23:46.403Z,12.61
2017-12-16T16:26:12.941Z,12.62
2017-12-16T16:28:39.329Z,12.58
2017-12-16T16:31:05.912Z,12.60
2017-12-16T16:33:32.348Z,12.55
2017-12-16T16:35:58.781Z,12.53
2017-12-16T16:38:25.911Z,12.52
2017-12-16T16:40:52.469Z,12.51
2017-12-16T16:43:18.910Z,12.52
2017-12-16T16:45:45.338Z,12.55
2017-12-16T16:48:11.671Z,12.57
2017-12-16T16:50:38.208Z,12.56
2017-12-16T16:53:04.642Z,12.55
2017-12-16T16:55:31.883Z,12.60
2017-12-16T16:57:58.331Z,12.64
2017-12-16T17:00:24.769Z,12.69
2017-12-16T17:02:51.203Z,12.71
2017-12-16T17:05:17.635Z,12.68
2017-12-16T17:07:44.073Z,12.65
2017-12-16T17:10:10.609Z,12.63
2017-12-16T17:12:37.656Z,12.62
2017-12-16T17:15:04.092Z,12.57
2017-12-16T17:17:30.524Z,12.55
2017-12-16T17:19:56.961Z,12.51
2017-12-16T17:22:23.497Z,12.53
2017-12-16T17:24:49.932Z,12.47
2017-12-16T17:27:16.370Z,12.41
2017-12-16T17:29:43.517Z,12.40
2017-12-16T17:32:10.043Z,12.40
2017-12-16T17:34:36.490Z,12.43
2017-12-16T17:37:02.924Z,12.41
2017-12-16T17:39:29.359Z,12.36
2017-12-16T17:41:55.896Z,12.31
2017-12-16T17:44:22.331Z,12.26
2017-12-16T17:46:49.584Z,12.18
2017-12-16T17:49:16.019Z,12.13
2017-12-16T17:51:42.558Z,12.10
2017-12-16T17:54:09.002Z,12.01
2017-12-16T17:56:35.428Z,12.00
2017-12-16T17:59:01.861Z,11.99
2017-12-16T18:01:28.376Z,11.98
2017-12-16T18:03:55.418Z,11.92
2017-12-16T18:06:21.881Z,11.86
2017-12-16T18:08:48.502Z,11.80
2017-12-16T18:11:15.013Z,11.82
2017-12-16T18:13:41.464Z,11.72
2017-12-16T18:16:07.929Z,11.66
2017-12-16T18:18:34.363Z,11.63
2017-12-16T18:21:01.516Z,11.58
2017-12-16T18:23:27.947Z,11.59
2017-12-16T18:25:54.382Z,11.60
2017-12-16T18:28:20.817Z,11.53
2017-12-16T18:30:47.333Z,11.50
2017-12-16T18:33:13.689Z,11.44
2017-12-16T18:35:40.122Z,11.41
2017-12-16T18:38:07.273Z,11.34
2017-12-16T18:40:33.707Z,11.30
2017-12-16T18:43:00.142Z,11.25
2017-12-16T18:45:26.576Z,11.17
2017-12-16T18:47:52.945Z,11.14
2017-12-16T18:50:19.344Z,11.13
2017-12-16T18:52:45.664Z,11.03
2017-12-16T18:55:13.122Z,10.95
2017-12-16T18:57:39.501Z,10.89
2017-12-16T19:00:05.901Z,10.85
2017-12-16T19:02:32.336Z,10.82
2017-12-16T19:04:58.771Z,10.79
2017-12-16T19:07:25.205Z,10.69
2017-12-16T19:09:51.643Z,10.70
2017-12-16T19:12:18.777Z,10.71
2017-12-16T19:14:45.194Z,10.62
2017-12-16T19:17:11.639Z,10.48
2017-12-16T19:19:38.083Z,10.47
2017-12-16T19:22:04.633Z,10.45
2017-12-16T19:24:31.001Z,10.44
2017-12-16T19:26:57.399Z,10.43
2017-12-16T19:29:24.551Z,10.46
2017-12-16T19:31:51.029Z,10.44
2017-12-16T19:34:17.420Z,10.44
2017-12-16T19:36:43.855Z,10.42
2017-12-16T19:39:10.392Z,10.45
2017-12-16T19:41:36.931Z,10.47
2017-12-16T19:44:03.364Z,10.48
2017-12-16T19:46:30.617Z,10.53
2017-12-16T19:48:56.984Z,10.56
2017-12-16T19:51:23.455Z,10.57
2017-12-16T19:53:49.896Z,10.57
2017-12-16T19:56:16.463Z,10.56
2017-12-16T19:58:42.894Z,10.52
2017-12-16T20:01:09.430Z,10.45
2017-12-16T20:03:36.479Z,10.45
2017-12-16T20:06:02.914Z,10.53
2017-12-16T20:08:29.349Z,10.53
2017-12-16T20:10:55.885Z,10.45
2017-12-16T20:13:22.261Z,10.38
2017-12-16T20:15:48.652Z,10.24
2017-12-16T20:18:15.086Z,10.24
2017-12-16T20:20:42.345Z,10.23
2017-12-16T20:23:08.775Z,10.16
2017-12-16T20:25:35.211Z,10.15
2017-12-16T20:28:01.644Z,10.12
2017-12-16T20:30:28.182Z,9.99
2017-12-16T20:32:54.617Z,10.01
2017-12-16T20:35:20.980Z,10.02
2017-12-16T20:37:48.181Z,9.92
2017-12-16T20:40:14.621Z,9.91
2017-12-16T20:42:41.005Z,9.88
2017-12-16T20:45:07.407Z,9.84
2017-12-16T20:47:33.839Z,9.87
2017-12-16T20:50:00.274Z,9.85
2017-12-16T20:52:26.811Z,9.87
2017-12-16T20:54:53.826Z,9.90
2017-12-16T20:57:20.268Z,9.95
2017-12-16T20:59:46.710Z,9.92
2017-12-16T21:02:13.267Z,9.80
2017-12-16T21:04:39.599Z,9.82
2017-12-16T21:07:06.136Z,9.81
2017-12-16T21:09:32.570Z,9.78
2017-12-16T21:11:59.824Z,9.77
2017-12-16T21:14:26.360Z,9.79
2017-12-16T21:16:52.796Z,9.78
2017-12-16T21:19:19.231Z,9.67
2017-12-16T21:21:45.664Z,9.61
2017-12-16T21:24:12.202Z,9.58
2017-12-16T21:26:38.570Z,9.53
2017-12-16T21:29:05.893Z,9.52
2017-12-16T21:31:32.411Z,9.47
2017-12-16T21:33:58.863Z,9.47
2017-12-16T21:36:25.297Z,9.40
2017-12-16T21:38:51.629Z,9.36
2017-12-16T21:41:18.166Z,9.40
2017-12-16T21:43:44.600Z,9.34
2017-12-16T21:46:11.854Z,9.30
2017-12-16T21:48:38.392Z,9.24
2017-12-16T21:51:04.936Z,9.23
2017-12-16T21:53:31.364Z,9.20
2017-12-16T21:55:57.798Z,9.19
2017-12-16T21:58:24.336Z,9.20
2017-12-16T22:00:50.874Z,9.23
2017-12-16T22:03:17.921Z,9.19
2017-12-16T22:05:44.355Z,9.12
2017-12-16T22:08:10.792Z,9.20
2017-12-16T22:10:37.328Z,9.18
2017-12-16T22:13:03.660Z,9.19
2017-12-16T22:15:30.095Z,9.23
2017-12-16T22:17:56.529Z,9.23
2017-12-16T22:20:23.581Z,9.21
2017-12-16T22:22:50.122Z,9.19
2017-12-16T22:25:16.550Z,9.19
2017-12-16T22:27:42.912Z,9.26
2017-12-16T22:30:09.316Z,9.25
2017-12-16T22:32:35.657Z,9.24
2017-12-16T22:35:02.102Z,9.22
2017-12-16T22:37:29.235Z,9.27
2017-12-16T22:39:55.567Z,9.30
2017-12-16T22:42:22.108Z,9.27
2017-12-16T22:44:48.542Z,9.21
2017-12-16T22:47:14.906Z,9.28
2017-12-16T22:49:41.306Z,9.33
2017-12-16T22:52:07.849Z,9.31
2017-12-16T22:54:34.896Z,9.34
2017-12-16T22:57:01.331Z,9.31
2017-12-16T22:59:28.481Z,9.31
2017-12-16T23:01:54.946Z,9.29
2017-12-16T23:04:21.351Z,9.33
2017-12-16T23:06:47.784Z,9.36
2017-12-16T23:09:14.218Z,9.37
2017-12-16T23:11:40.754Z,9.31
2017-12-16T23:14:07.188Z,9.26
2017-12-16T23:16:33.598Z,9.20
2017-12-16T23:19:00.040Z,9.15
2017-12-16T23:21:26.595Z,9.15
2017-12-16T23:23:52.958Z,9.13
2017-12-16T23:26:19.363Z,9.09
2017-12-16T23:28:46.514Z,9.12
2017-12-16T23:31:13.027Z,9.08
2017-12-16T23:33:39.382Z,9.09
2017-12-16T23:36:05.818Z,8.89
2017-12-16T23:38:32.355Z,9.06
2017-12-16T23:40:58.891Z,9.06
2017-12-16T23:43:25.329Z,8.99
2017-12-16T23:45:52.479Z,8.97
2017-12-16T23:48:18.913Z,9.02
2017-12-16T23:50:45.450Z,9.03
2017-12-16T23:53:11.886Z,8.98
2017-12-16T23:55:38.320Z,8.92
2017-12-16T23:58:04.756Z,8.93
